sensor_id;sensor_type;location;lat;lon;timestamp;pressure;altitude;pressure_sealevel;temperature;humidity
37792;BME280;29527;55.766;37.570;2023-03-17T00:00:06;100039.00;;;3.16;65.41
37792;BME280;29527;55.766;37.570;2023-03-17T00:02:35;100024.97;;;3.14;65.85
37792;BME280;29527;55.766;37.570;2023-03-17T00:05:01;100028.91;;;3.05;65.37
37792;BME280;29527;55.766;37.570;2023-03-17T00:07:28;100043.69;;;3.09;65.67
37792;BME280;29527;55.766;37.570;2023-03-17T00:09:54;100039.34;;;3.08;65.65
37792;BME280;29527;55.766;37.570;2023-03-17T00:12:20;100041.06;;;3.09;65.87
37792;BME280;29527;55.766;37.570;2023-03-17T00:14:45;100037.63;;;3.07;65.46
37792;BME280;29527;55.766;37.570;2023-03-17T00:17:14;100047.28;;;3.08;65.95
37792;BME280;29527;55.766;37.570;2023-03-17T00:19:41;100038.75;;;3.01;65.68
37792;BME280;29527;55.766;37.570;2023-03-17T00:22:14;100044.53;;;3.10;66.02
37792;BME280;29527;55.766;37.570;2023-03-17T00:24:41;100044.78;;;3.05;65.37
37792;BME280;29527;55.766;37.570;2023-03-17T00:27:11;100014.59;;;2.90;65.41
37792;BME280;29527;55.766;37.570;2023-03-17T00:29:37;100047.41;;;3.05;65.72
37792;BME280;29527;55.766;37.570;2023-03-17T00:32:03;100049.84;;;3.10;65.50
37792;BME280;29527;55.766;37.570;2023-03-17T00:34:29;100035.97;;;3.05;65.50
37792;BME280;29527;55.766;37.570;2023-03-17T00:36:54;100040.19;;;3.09;64.91
37792;BME280;29527;55.766;37.570;2023-03-17T00:39:20;100034.34;;;3.02;65.35
37792;BME280;29527;55.766;37.570;2023-03-17T00:41:46;100053.50;;;3.07;65.49
37792;BME280;29527;55.766;37.570;2023-03-17T00:44:12;100047.31;;;3.07;65.51
37792;BME280;29527;55.766;37.570;2023-03-17T00:46:39;100036.53;;;2.92;65.33
37792;BME280;29527;55.766;37.570;2023-03-17T00:49:17;100054.28;;;3.09;65.09
37792;BME280;29527;55.766;37.570;2023-03-17T00:51:44;100061.78;;;2.99;65.27
37792;BME280;29527;55.766;37.570;2023-03-17T00:54:11;100049.47;;;2.98;65.73
37792;BME280;29527;55.766;37.570;2023-03-17T00:56:38;100058.97;;;3.03;65.34
37792;BME280;29527;55.766;37.570;2023-03-17T00:59:37;100058.34;;;2.97;65.15
37792;BME280;29527;55.766;37.570;2023-03-17T01:01:54;100018.91;;;2.72;65.40
37792;BME280;29527;55.766;37.570;2023-03-17T01:04:20;100059.31;;;2.95;64.80
37792;BME280;29527;55.766;37.570;2023-03-17T01:06:48;100060.59;;;2.86;65.18
37792;BME280;29527;55.766;37.570;2023-03-17T01:09:15;100068.09;;;2.76;66.16
37792;BME280;29527;55.766;37.570;2023-03-17T01:11:43;100079.66;;;2.73;65.68
37792;BME280;29527;55.766;37.570;2023-03-17T01:14:10;100090.16;;;2.75;65.96
37792;BME280;29527;55.766;37.570;2023-03-17T01:16:36;100065.19;;;2.62;65.76
37792;BME280;29527;55.766;37.570;2023-03-17T01:19:02;100097.31;;;2.73;66.10
37792;BME280;29527;55.766;37.570;2023-03-17T01:21:27;100102.69;;;2.71;65.55
37792;BME280;29527;55.766;37.570;2023-03-17T01:23:53;100109.22;;;2.83;65.13
37792;BME280;29527;55.766;37.570;2023-03-17T01:26:19;100106.91;;;2.76;65.40
37792;BME280;29527;55.766;37.570;2023-03-17T01:28:44;100104.44;;;2.71;65.75
37792;BME280;29527;55.766;37.570;2023-03-17T01:31:10;100114.97;;;2.72;65.57
37792;BME280;29527;55.766;37.570;2023-03-17T01:33:36;100115.75;;;2.75;65.66
37792;BME280;29527;55.766;37.570;2023-03-17T01:36:02;100121.84;;;2.77;65.43
37792;BME280;29527;55.766;37.570;2023-03-17T01:38:27;100126.34;;;2.75;64.92
37792;BME280;29527;55.766;37.570;2023-03-17T01:40:54;100120.16;;;2.74;64.81
37792;BME280;29527;55.766;37.570;2023-03-17T01:46:20;100131.44;;;2.79;65.51
37792;BME280;29527;55.766;37.570;2023-03-17T01:54:11;100146.88;;;2.68;64.95
37792;BME280;29527;55.766;37.570;2023-03-17T01:56:40;100143.59;;;2.63;64.65
37792;BME280;29527;55.766;37.570;2023-03-17T01:59:10;100153.28;;;2.62;65.22
37792;BME280;29527;55.766;37.570;2023-03-17T02:01:41;100150.72;;;2.61;65.13
37792;BME280;29527;55.766;37.570;2023-03-17T02:04:10;100159.59;;;2.60;65.13
37792;BME280;29527;55.766;37.570;2023-03-17T02:06:36;100152.72;;;2.55;64.56
37792;BME280;29527;55.766;37.570;2023-03-17T02:09:02;100133.91;;;2.41;65.08
37792;BME280;29527;55.766;37.570;2023-03-17T02:11:29;100151.16;;;2.50;64.73
37792;BME280;29527;55.766;37.570;2023-03-17T02:13:55;100151.97;;;2.52;64.85
37792;BME280;29527;55.766;37.570;2023-03-17T02:16:20;100153.22;;;2.43;65.04
37792;BME280;29527;55.766;37.570;2023-03-17T02:18:46;100144.66;;;2.36;64.93
37792;BME280;29527;55.766;37.570;2023-03-17T02:21:28;100152.22;;;2.46;65.64
37792;BME280;29527;55.766;37.570;2023-03-17T02:23:56;100142.03;;;2.36;64.81
37792;BME280;29527;55.766;37.570;2023-03-17T02:26:23;100149.25;;;2.33;64.99
37792;BME280;29527;55.766;37.570;2023-03-17T02:28:50;100161.84;;;2.26;64.80
37792;BME280;29527;55.766;37.570;2023-03-17T02:31:15;100169.44;;;2.34;64.86
37792;BME280;29527;55.766;37.570;2023-03-17T02:33:41;100171.31;;;2.32;64.08
37792;BME280;29527;55.766;37.570;2023-03-17T02:36:08;100194.03;;;2.36;64.16
37792;BME280;29527;55.766;37.570;2023-03-17T02:38:34;100208.75;;;2.19;65.06
37792;BME280;29527;55.766;37.570;2023-03-17T02:41:00;100218.50;;;2.19;64.48
37792;BME280;29527;55.766;37.570;2023-03-17T02:43:25;100218.50;;;2.19;64.47
37792;BME280;29527;55.766;37.570;2023-03-17T02:45:51;100221.06;;;2.20;64.22
37792;BME280;29527;55.766;37.570;2023-03-17T02:48:17;100230.66;;;2.23;64.06
37792;BME280;29527;55.766;37.570;2023-03-17T02:50:43;100242.13;;;2.22;63.92
37792;BME280;29527;55.766;37.570;2023-03-17T02:53:09;100239.50;;;2.22;64.38
37792;BME280;29527;55.766;37.570;2023-03-17T02:55:34;100237.66;;;2.24;63.53
37792;BME280;29527;55.766;37.570;2023-03-17T02:58:00;100241.34;;;2.20;63.74
37792;BME280;29527;55.766;37.570;2023-03-17T03:00:27;100246.38;;;2.26;63.80
37792;BME280;29527;55.766;37.570;2023-03-17T03:02:53;100244.66;;;2.25;63.35
37792;BME280;29527;55.766;37.570;2023-03-17T03:05:18;100252.50;;;2.26;63.06
37792;BME280;29527;55.766;37.570;2023-03-17T03:07:44;100255.09;;;2.28;62.95
37792;BME280;29527;55.766;37.570;2023-03-17T03:10:10;100264.75;;;2.29;62.96
37792;BME280;29527;55.766;37.570;2023-03-17T03:12:35;100263.03;;;2.28;62.65
37792;BME280;29527;55.766;37.570;2023-03-17T03:15:01;100258.59;;;2.28;61.87
37792;BME280;29527;55.766;37.570;2023-03-17T03:17:28;100265.78;;;2.25;62.16
37792;BME280;29527;55.766;37.570;2023-03-17T03:19:53;100277.09;;;2.28;62.39
37792;BME280;29527;55.766;37.570;2023-03-17T03:22:19;100279.81;;;2.27;61.77
37792;BME280;29527;55.766;37.570;2023-03-17T03:24:44;100281.66;;;2.25;61.95
37792;BME280;29527;55.766;37.570;2023-03-17T03:27:10;100253.97;;;2.11;61.38
37792;BME280;29527;55.766;37.570;2023-03-17T03:29:36;100256.81;;;2.07;61.16
37792;BME280;29527;55.766;37.570;2023-03-17T03:32:02;100283.19;;;2.31;61.13
37792;BME280;29527;55.766;37.570;2023-03-17T03:34:28;100284.66;;;2.38;60.23
37792;BME280;29527;55.766;37.570;2023-03-17T03:36:53;100284.16;;;2.28;61.00
37792;BME280;29527;55.766;37.570;2023-03-17T03:39:19;100273.78;;;2.23;60.73
37792;BME280;29527;55.766;37.570;2023-03-17T03:41:44;100284.97;;;2.30;60.67
37792;BME280;29527;55.766;37.570;2023-03-17T03:44:10;100298.22;;;2.28;60.04
37792;BME280;29527;55.766;37.570;2023-03-17T03:46:35;100304.38;;;2.29;59.91
37792;BME280;29527;55.766;37.570;2023-03-17T03:49:01;100307.94;;;2.28;60.15
37792;BME280;29527;55.766;37.570;2023-03-17T03:51:26;100311.38;;;2.30;60.12
37792;BME280;29527;55.766;37.570;2023-03-17T03:53:52;100322.72;;;2.34;59.99
37792;BME280;29527;55.766;37.570;2023-03-17T03:56:17;100320.91;;;2.34;60.37
37792;BME280;29527;55.766;37.570;2023-03-17T03:58:42;100320.91;;;2.34;59.59
37792;BME280;29527;55.766;37.570;2023-03-17T04:01:08;100318.34;;;2.33;59.21
37792;BME280;29527;55.766;37.570;2023-03-17T04:03:37;100322.50;;;2.38;59.10
37792;BME280;29527;55.766;37.570;2023-03-17T04:06:03;100293.44;;;2.16;58.83
37792;BME280;29527;55.766;37.570;2023-03-17T04:08:29;100328.69;;;2.39;58.92
37792;BME280;29527;55.766;37.570;2023-03-17T04:10:56;100340.91;;;2.41;58.78
37792;BME280;29527;55.766;37.570;2023-03-17T04:13:21;100304.53;;;2.48;57.32
37792;BME280;29527;55.766;37.570;2023-03-17T04:15:47;100338.75;;;2.51;57.61
37792;BME280;29527;55.766;37.570;2023-03-17T04:18:12;100346.75;;;2.50;57.40
37792;BME280;29527;55.766;37.570;2023-03-17T04:20:38;100350.31;;;2.49;57.38
37792;BME280;29527;55.766;37.570;2023-03-17T04:23:03;100360.81;;;2.50;57.51
37792;BME280;29527;55.766;37.570;2023-03-17T04:25:29;100353.91;;;2.48;57.56
37792;BME280;29527;55.766;37.570;2023-03-17T04:27:55;100361.81;;;2.48;57.15
37792;BME280;29527;55.766;37.570;2023-03-17T04:30:20;100358.88;;;2.55;56.75
37792;BME280;29527;55.766;37.570;2023-03-17T04:32:46;100363.78;;;2.42;56.71
37792;BME280;29527;55.766;37.570;2023-03-17T04:35:13;100369.69;;;2.49;56.79
37792;BME280;29527;55.766;37.570;2023-03-17T04:37:38;100373.19;;;2.50;56.63
37792;BME280;29527;55.766;37.570;2023-03-17T04:40:06;100381.13;;;2.50;56.34
37792;BME280;29527;55.766;37.570;2023-03-17T04:42:35;100362.41;;;2.32;56.41
37792;BME280;29527;55.766;37.570;2023-03-17T04:45:01;100398.72;;;2.51;56.48
37792;BME280;29527;55.766;37.570;2023-03-17T04:47:28;100408.25;;;2.55;56.05
37792;BME280;29527;55.766;37.570;2023-03-17T04:49:54;100385.09;;;2.38;55.41
37792;BME280;29527;55.766;37.570;2023-03-17T04:52:19;100409.91;;;2.57;55.62
37792;BME280;29527;55.766;37.570;2023-03-17T04:54:44;100425.41;;;2.67;55.22
37792;BME280;29527;55.766;37.570;2023-03-17T04:57:10;100433.09;;;2.73;55.67
37792;BME280;29527;55.766;37.570;2023-03-17T04:59:36;100420.59;;;2.78;55.07
37792;BME280;29527;55.766;37.570;2023-03-17T05:02:01;100414.75;;;2.92;53.81
37792;BME280;29527;55.766;37.570;2023-03-17T05:04:27;100432.56;;;2.87;53.96
37792;BME280;29527;55.766;37.570;2023-03-17T05:06:52;100428.00;;;2.92;53.73
37792;BME280;29527;55.766;37.570;2023-03-17T05:09:18;100417.22;;;2.97;53.51
37792;BME280;29527;55.766;37.570;2023-03-17T05:11:43;100441.25;;;3.13;53.37
37792;BME280;29527;55.766;37.570;2023-03-17T05:14:09;100415.13;;;3.05;52.54
37792;BME280;29527;55.766;37.570;2023-03-17T05:16:34;100443.47;;;3.24;52.23
37792;BME280;29527;55.766;37.570;2023-03-17T05:19:00;100449.34;;;3.32;51.66
37792;BME280;29527;55.766;37.570;2023-03-17T05:21:25;100450.81;;;3.39;51.70
37792;BME280;29527;55.766;37.570;2023-03-17T05:23:51;100461.75;;;3.52;51.63
37792;BME280;29527;55.766;37.570;2023-03-17T05:26:16;100470.94;;;3.66;51.01
37792;BME280;29527;55.766;37.570;2023-03-17T05:28:43;100479.59;;;3.69;50.62
37792;BME280;29527;55.766;37.570;2023-03-17T05:31:08;100482.19;;;3.71;50.02
37792;BME280;29527;55.766;37.570;2023-03-17T05:33:34;100484.91;;;3.69;50.31
37792;BME280;29527;55.766;37.570;2023-03-17T05:36:01;100483.91;;;3.72;50.63
37792;BME280;29527;55.766;37.570;2023-03-17T05:38:27;100479.38;;;3.76;50.25
37792;BME280;29527;55.766;37.570;2023-03-17T05:40:53;100490.81;;;3.76;49.63
37792;BME280;29527;55.766;37.570;2023-03-17T05:43:19;100491.47;;;3.81;49.47
37792;BME280;29527;55.766;37.570;2023-03-17T05:45:45;100485.38;;;3.79;49.47
37792;BME280;29527;55.766;37.570;2023-03-17T05:48:12;100496.72;;;3.83;49.43
37792;BME280;29527;55.766;37.570;2023-03-17T05:50:38;100484.13;;;3.88;48.84
37792;BME280;29527;55.766;37.570;2023-03-17T05:53:04;100490.31;;;3.88;48.91
37792;BME280;29527;55.766;37.570;2023-03-17T05:55:30;100506.31;;;4.06;48.70
37792;BME280;29527;55.766;37.570;2023-03-17T05:57:56;100505.97;;;4.15;48.04
37792;BME280;29527;55.766;37.570;2023-03-17T06:00:21;100503.22;;;4.17;47.25
37792;BME280;29527;55.766;37.570;2023-03-17T06:02:48;100504.00;;;4.19;47.45
37792;BME280;29527;55.766;37.570;2023-03-17T06:05:13;100501.44;;;4.18;47.38
37792;BME280;29527;55.766;37.570;2023-03-17T06:07:39;100508.34;;;4.22;46.82
37792;BME280;29527;55.766;37.570;2023-03-17T06:10:06;100515.09;;;4.29;46.94
37792;BME280;29527;55.766;37.570;2023-03-17T06:12:32;100511.78;;;4.24;46.67
37792;BME280;29527;55.766;37.570;2023-03-17T06:14:58;100515.41;;;4.21;46.52
37792;BME280;29527;55.766;37.570;2023-03-17T06:17:23;100515.50;;;4.20;46.74
37792;BME280;29527;55.766;37.570;2023-03-17T06:19:49;100521.63;;;4.20;46.92
37792;BME280;29527;55.766;37.570;2023-03-17T06:22:15;100517.97;;;4.24;47.15
37792;BME280;29527;55.766;37.570;2023-03-17T06:24:41;100524.09;;;4.25;46.08
37792;BME280;29527;55.766;37.570;2023-03-17T06:27:06;100519.53;;;4.28;46.33
37792;BME280;29527;55.766;37.570;2023-03-17T06:29:35;100521.88;;;4.36;45.86
37792;BME280;29527;55.766;37.570;2023-03-17T06:32:01;100486.72;;;4.31;46.12
37792;BME280;29527;55.766;37.570;2023-03-17T06:34:28;100522.09;;;4.71;45.99
37792;BME280;29527;55.766;37.570;2023-03-17T06:36:53;100499.88;;;4.93;45.05
37792;BME280;29527;55.766;37.570;2023-03-17T06:39:20;100524.28;;;5.77;43.13
37792;BME280;29527;55.766;37.570;2023-03-17T06:41:46;100528.50;;;7.35;40.80
37792;BME280;29527;55.766;37.570;2023-03-17T06:44:11;100518.09;;;9.81;35.65
37792;BME280;29527;55.766;37.570;2023-03-17T06:46:37;100523.06;;;12.04;31.95
37792;BME280;29527;55.766;37.570;2023-03-17T06:49:03;100522.34;;;13.52;29.65
37792;BME280;29527;55.766;37.570;2023-03-17T06:51:29;100526.06;;;16.01;26.40
37792;BME280;29527;55.766;37.570;2023-03-17T06:53:55;100521.47;;;17.36;24.05
37792;BME280;29527;55.766;37.570;2023-03-17T06:56:21;100511.81;;;16.86;24.50
37792;BME280;29527;55.766;37.570;2023-03-17T06:58:46;100537.44;;;15.95;25.31
37792;BME280;29527;55.766;37.570;2023-03-17T07:01:12;100531.81;;;14.75;26.91
37792;BME280;29527;55.766;37.570;2023-03-17T07:03:39;100530.25;;;13.65;28.24
37792;BME280;29527;55.766;37.570;2023-03-17T07:06:05;100521.38;;;12.62;29.23
37792;BME280;29527;55.766;37.570;2023-03-17T07:08:31;100532.69;;;11.83;30.16
37792;BME280;29527;55.766;37.570;2023-03-17T07:10:58;100501.22;;;10.73;31.25
37792;BME280;29527;55.766;37.570;2023-03-17T07:13:23;100537.38;;;10.27;32.46
37792;BME280;29527;55.766;37.570;2023-03-17T07:15:50;100542.88;;;9.98;33.38
37792;BME280;29527;55.766;37.570;2023-03-17T07:18:16;100549.41;;;9.66;32.89
37792;BME280;29527;55.766;37.570;2023-03-17T07:20:42;100553.09;;;9.36;33.16
37792;BME280;29527;55.766;37.570;2023-03-17T07:23:15;100559.41;;;9.21;33.83
37792;BME280;29527;55.766;37.570;2023-03-17T07:25:43;100572.56;;;9.38;35.19
37792;BME280;29527;55.766;37.570;2023-03-17T07:28:09;100557.69;;;8.61;34.64
37792;BME280;29527;55.766;37.570;2023-03-17T07:30:35;100578.22;;;8.45;34.75
37792;BME280;29527;55.766;37.570;2023-03-17T07:33:01;100581.56;;;8.18;35.50
37792;BME280;29527;55.766;37.570;2023-03-17T07:35:28;100582.16;;;8.23;35.58
37792;BME280;29527;55.766;37.570;2023-03-17T07:37:55;100573.88;;;8.28;34.92
37792;BME280;29527;55.766;37.570;2023-03-17T07:40:21;100579.59;;;8.36;35.18
37792;BME280;29527;55.766;37.570;2023-03-17T07:42:46;100585.03;;;8.51;34.97
37792;BME280;29527;55.766;37.570;2023-03-17T07:45:12;100579.16;;;8.74;33.96
37792;BME280;29527;55.766;37.570;2023-03-17T07:47:38;100576.88;;;8.83;33.55
37792;BME280;29527;55.766;37.570;2023-03-17T07:50:04;100578.59;;;9.13;33.37
37792;BME280;29527;55.766;37.570;2023-03-17T07:52:30;100578.06;;;9.64;32.46
37792;BME280;29527;55.766;37.570;2023-03-17T07:54:55;100588.22;;;10.41;31.89
37792;BME280;29527;55.766;37.570;2023-03-17T07:57:22;100581.38;;;11.15;30.52
37792;BME280;29527;55.766;37.570;2023-03-17T07:59:48;100597.47;;;12.02;28.85
37792;BME280;29527;55.766;37.570;2023-03-17T08:02:15;100592.00;;;12.98;27.29
37792;BME280;29527;55.766;37.570;2023-03-17T08:04:42;100597.91;;;13.49;26.32
37792;BME280;29527;55.766;37.570;2023-03-17T08:07:07;100609.13;;;13.77;25.87
37792;BME280;29527;55.766;37.570;2023-03-17T08:09:35;100582.47;;;13.62;25.31
37792;BME280;29527;55.766;37.570;2023-03-17T08:12:02;100606.19;;;13.69;25.29
37792;BME280;29527;55.766;37.570;2023-03-17T08:14:28;100589.72;;;13.51;25.42
37792;BME280;29527;55.766;37.570;2023-03-17T08:16:54;100611.59;;;13.34;25.64
37792;BME280;29527;55.766;37.570;2023-03-17T08:19:20;100619.28;;;13.16;26.25
37792;BME280;29527;55.766;37.570;2023-03-17T08:21:47;100627.91;;;12.97;26.06
37792;BME280;29527;55.766;37.570;2023-03-17T08:24:12;100634.50;;;12.93;26.30
37792;BME280;29527;55.766;37.570;2023-03-17T08:26:38;100629.81;;;12.72;26.02
37792;BME280;29527;55.766;37.570;2023-03-17T08:29:03;100643.09;;;12.27;26.28
37792;BME280;29527;55.766;37.570;2023-03-17T08:31:32;100642.91;;;12.17;27.04
37792;BME280;29527;55.766;37.570;2023-03-17T08:33:58;100642.53;;;12.10;27.18
37792;BME280;29527;55.766;37.570;2023-03-17T08:36:25;100646.94;;;12.11;27.66
37792;BME280;29527;55.766;37.570;2023-03-17T08:38:51;100651.56;;;11.96;27.80
37792;BME280;29527;55.766;37.570;2023-03-17T08:41:20;100663.59;;;11.90;27.77
37792;BME280;29527;55.766;37.570;2023-03-17T08:43:47;100665.34;;;11.78;27.72
37792;BME280;29527;55.766;37.570;2023-03-17T08:46:18;100678.47;;;11.57;27.68
37792;BME280;29527;55.766;37.570;2023-03-17T08:48:45;100677.34;;;11.36;28.07
37792;BME280;29527;55.766;37.570;2023-03-17T08:51:13;100657.53;;;10.72;28.08
37792;BME280;29527;55.766;37.570;2023-03-17T08:53:39;100665.19;;;10.91;28.11
37792;BME280;29527;55.766;37.570;2023-03-17T08:56:05;100666.03;;;10.79;28.10
37792;BME280;29527;55.766;37.570;2023-03-17T08:58:32;100671.81;;;10.45;28.63
37792;BME280;29527;55.766;37.570;2023-03-17T09:00:59;100677.97;;;10.05;29.47
37792;BME280;29527;55.766;37.570;2023-03-17T09:03:26;100654.28;;;9.57;29.46
37792;BME280;29527;55.766;37.570;2023-03-17T09:05:52;100692.06;;;9.51;29.72
37792;BME280;29527;55.766;37.570;2023-03-17T09:08:17;100695.78;;;9.19;30.18
37792;BME280;29527;55.766;37.570;2023-03-17T09:10:43;100700.09;;;8.91;30.61
37792;BME280;29527;55.766;37.570;2023-03-17T09:13:09;100691.00;;;8.79;30.86
37792;BME280;29527;55.766;37.570;2023-03-17T09:15:35;100712.22;;;8.82;31.04
37792;BME280;29527;55.766;37.570;2023-03-17T09:18:02;100714.63;;;8.71;30.46
37792;BME280;29527;55.766;37.570;2023-03-17T09:20:28;100712.84;;;8.71;30.80
37792;BME280;29527;55.766;37.570;2023-03-17T09:22:54;100715.34;;;8.89;30.38
37792;BME280;29527;55.766;37.570;2023-03-17T09:25:20;100681.25;;;8.94;30.04
37792;BME280;29527;55.766;37.570;2023-03-17T09:27:46;100710.38;;;9.28;29.76
37792;BME280;29527;55.766;37.570;2023-03-17T09:30:11;100703.03;;;9.17;29.25
37792;BME280;29527;55.766;37.570;2023-03-17T09:32:38;100705.09;;;9.12;30.05
37792;BME280;29527;55.766;37.570;2023-03-17T09:35:04;100727.25;;;9.14;29.45
37792;BME280;29527;55.766;37.570;2023-03-17T09:37:30;100715.47;;;9.02;28.11
37792;BME280;29527;55.766;37.570;2023-03-17T09:39:56;100718.59;;;8.80;28.16
37792;BME280;29527;55.766;37.570;2023-03-17T09:48:02;100724.03;;;7.82;29.12
37792;BME280;29527;55.766;37.570;2023-03-17T09:53:04;100702.22;;;7.41;29.01
37792;BME280;29527;55.766;37.570;2023-03-17T09:55:37;100724.13;;;7.46;29.56
37792;BME280;29527;55.766;37.570;2023-03-17T09:58:03;100718.13;;;7.59;27.27
37792;BME280;29527;55.766;37.570;2023-03-17T10:00:28;100721.75;;;7.24;28.98
37792;BME280;29527;55.766;37.570;2023-03-17T10:02:56;100730.03;;;7.18;28.75
37792;BME280;29527;55.766;37.570;2023-03-17T10:05:26;100732.09;;;7.13;29.01
37792;BME280;29527;55.766;37.570;2023-03-17T10:08:11;100742.50;;;7.17;29.23
37792;BME280;29527;55.766;37.570;2023-03-17T10:13:27;100738.34;;;7.29;28.46
37792;BME280;29527;55.766;37.570;2023-03-17T10:19:16;100743.06;;;7.24;28.56
37792;BME280;29527;55.766;37.570;2023-03-17T10:22:53;100751.91;;;7.25;29.43
37792;BME280;29527;55.766;37.570;2023-03-17T10:24:53;100748.84;;;7.15;28.41
37792;BME280;29527;55.766;37.570;2023-03-17T10:27:22;100749.72;;;6.98;28.00
37792;BME280;29527;55.766;37.570;2023-03-17T10:29:47;100746.59;;;6.89;28.25
37792;BME280;29527;55.766;37.570;2023-03-17T10:32:13;100754.31;;;6.94;27.65
37792;BME280;29527;55.766;37.570;2023-03-17T10:34:40;100752.31;;;6.99;27.08
37792;BME280;29527;55.766;37.570;2023-03-17T10:37:16;100749.63;;;6.82;27.54
37792;BME280;29527;55.766;37.570;2023-03-17T10:39:55;100725.38;;;7.06;27.16
37792;BME280;29527;55.766;37.570;2023-03-17T10:44:59;100753.00;;;6.68;27.53
37792;BME280;29527;55.766;37.570;2023-03-17T10:47:36;100759.94;;;6.70;27.64
37792;BME280;29527;55.766;37.570;2023-03-17T10:50:23;100744.53;;;6.77;27.68
37792;BME280;29527;55.766;37.570;2023-03-17T10:52:53;100740.72;;;6.83;27.00
37792;BME280;29527;55.766;37.570;2023-03-17T10:56:13;100755.91;;;6.81;27.18
37792;BME280;29527;55.766;37.570;2023-03-17T10:58:16;100760.84;;;6.88;27.61
37792;BME280;29527;55.766;37.570;2023-03-17T11:00:56;100758.56;;;7.16;26.62
37792;BME280;29527;55.766;37.570;2023-03-17T11:03:25;100736.78;;;6.72;26.54
37792;BME280;29527;55.766;37.570;2023-03-17T11:08:19;100745.13;;;6.47;25.81
37792;BME280;29527;55.766;37.570;2023-03-17T11:10:47;100770.69;;;6.50;26.05
37792;BME280;29527;55.766;37.570;2023-03-17T11:13:17;100763.38;;;6.55;25.73
37792;BME280;29527;55.766;37.570;2023-03-17T11:15:52;100762.78;;;6.85;26.55
37792;BME280;29527;55.766;37.570;2023-03-17T11:18:26;100768.06;;;6.67;25.54
37792;BME280;29527;55.766;37.570;2023-03-17T11:21:01;100781.38;;;6.67;26.95
37792;BME280;29527;55.766;37.570;2023-03-17T11:51:21;100778.03;;;6.81;27.48
37792;BME280;29527;55.766;37.570;2023-03-17T11:54:06;100784.25;;;6.82;27.42
37792;BME280;29527;55.766;37.570;2023-03-17T11:56:50;100756.75;;;6.64;27.53
37792;BME280;29527;55.766;37.570;2023-03-17T11:59:34;100792.53;;;6.75;27.01
37792;BME280;29527;55.766;37.570;2023-03-17T12:02:11;100794.53;;;6.70;26.49
37792;BME280;29527;55.766;37.570;2023-03-17T12:08:44;100795.19;;;6.75;26.46
37792;BME280;29527;55.766;37.570;2023-03-17T12:11:06;100790.47;;;6.63;26.73
37792;BME280;29527;55.766;37.570;2023-03-17T12:13:34;100793.84;;;6.47;25.54
37792;BME280;29527;55.766;37.570;2023-03-17T12:16:08;100809.81;;;6.47;25.51
37792;BME280;29527;55.766;37.570;2023-03-17T12:19:06;100808.50;;;6.56;25.79
37792;BME280;29527;55.766;37.570;2023-03-17T12:22:06;100801.16;;;6.98;23.98
37792;BME280;29527;55.766;37.570;2023-03-17T12:24:38;100801.41;;;6.38;24.16
37792;BME280;29527;55.766;37.570;2023-03-17T12:27:18;100807.38;;;6.24;25.24
37792;BME280;29527;55.766;37.570;2023-03-17T12:30:02;100815.72;;;6.16;25.34
37792;BME280;29527;55.766;37.570;2023-03-17T12:33:14;100819.72;;;6.25;26.15
37792;BME280;29527;55.766;37.570;2023-03-17T12:35:42;100817.47;;;6.17;25.11
37792;BME280;29527;55.766;37.570;2023-03-17T12:38:11;100822.19;;;6.10;25.95
37792;BME280;29527;55.766;37.570;2023-03-17T12:46:54;100825.34;;;5.98;24.97
37792;BME280;29527;55.766;37.570;2023-03-17T12:54:47;100839.00;;;5.90;25.63
37792;BME280;29527;55.766;37.570;2023-03-17T12:57:16;100837.22;;;5.91;26.22
37792;BME280;29527;55.766;37.570;2023-03-17T12:59:43;100839.81;;;5.92;25.26
37792;BME280;29527;55.766;37.570;2023-03-17T13:04:57;100841.44;;;6.15;23.56
37792;BME280;29527;55.766;37.570;2023-03-17T13:07:45;100847.69;;;5.94;24.99
37792;BME280;29527;55.766;37.570;2023-03-17T13:10:18;100850.97;;;5.80;24.73
37792;BME280;29527;55.766;37.570;2023-03-17T13:25:58;100850.97;;;5.59;24.87
37792;BME280;29527;55.766;37.570;2023-03-17T13:28:26;100860.91;;;5.55;25.26
37792;BME280;29527;55.766;37.570;2023-03-17T13:33:55;100865.66;;;5.47;26.32
37792;BME280;29527;55.766;37.570;2023-03-17T13:36:27;100865.66;;;5.47;26.10
37792;BME280;29527;55.766;37.570;2023-03-17T13:41:41;100860.88;;;5.35;25.27
37792;BME280;29527;55.766;37.570;2023-03-17T13:44:32;100867.78;;;5.39;25.57
37792;BME280;29527;55.766;37.570;2023-03-17T13:47:32;100870.34;;;5.40;25.93
37792;BME280;29527;55.766;37.570;2023-03-17T13:50:31;100872.63;;;5.50;25.21
37792;BME280;29527;55.766;37.570;2023-03-17T13:53:03;100870.88;;;5.28;25.49
37792;BME280;29527;55.766;37.570;2023-03-17T13:55:40;100883.41;;;5.24;25.98
37792;BME280;29527;55.766;37.570;2023-03-17T14:00:36;100882.44;;;5.05;25.39
37792;BME280;29527;55.766;37.570;2023-03-17T14:03:29;100892.81;;;5.11;27.11
37792;BME280;29527;55.766;37.570;2023-03-17T14:05:59;100894.19;;;4.99;25.61
37792;BME280;29527;55.766;37.570;2023-03-17T14:08:32;100892.63;;;4.93;25.71
37792;BME280;29527;55.766;37.570;2023-03-17T14:11:06;100897.06;;;4.93;25.84
37792;BME280;29527;55.766;37.570;2023-03-17T14:13:48;100896.47;;;4.86;26.26
37792;BME280;29527;55.766;37.570;2023-03-17T14:16:25;100901.91;;;4.83;25.73
37792;BME280;29527;55.766;37.570;2023-03-17T14:19:00;100878.66;;;4.66;25.08
37792;BME280;29527;55.766;37.570;2023-03-17T14:21:33;100904.25;;;4.67;25.73
37792;BME280;29527;55.766;37.570;2023-03-17T14:24:01;100910.69;;;4.61;26.33
37792;BME280;29527;55.766;37.570;2023-03-17T14:26:29;100907.41;;;4.54;26.25
37792;BME280;29527;55.766;37.570;2023-03-17T14:29:00;100922.53;;;4.51;26.77